Time;durP1;ratioP1;P1;durP2;ratioP2;P2;SDS_P1;SDS_P2;PMS_P1;PMS_P2;Temp;Humidity;BMP_temperature;BMP_pressure;BME280_temperature;BME280_humidity;BME280_pressure;Samples;Min_cycle;Max_cycle;Signal;HPM_P1;HPM_P2
2022/02/13 00:01:41;;;;;;;1.67;1.05;;;;;;;;;;5062786;28;20740;-71
2022/02/13 00:04:07;;;;;;;0.50;0.47;;;;;;;;;;5048479;28;20025;-71
2022/02/13 00:06:33;;;;;;;0.95;0.82;;;;;;;;;;5057001;28;20036;-70
2022/02/13 00:08:59;;;;;;;4.13;1.48;;;;;;;;;;5065442;28;20029;-71
2022/02/13 00:11:25;;;;;;;1.08;0.77;;;;;;;;;;5049990;28;20033;-70
2022/02/13 00:13:51;;;;;;;0.98;0.68;;;;;;;;;;5062431;28;20029;-71
2022/02/13 00:16:17;;;;;;;0.65;0.65;;;;;;;;;;5048814;28;20033;-70
2022/02/13 00:18:44;;;;;;;1.45;1.10;;;;;;;;;;5060253;28;20032;-71
2022/02/13 00:21:10;;;;;;;0.15;0.15;;;;;;;;;;5065116;28;20017;-71
2022/02/13 00:23:36;;;;;;;0.25;0.25;;;;;;;;;;5056392;28;20476;-71
2022/02/13 00:26:02;;;;;;;0.85;0.85;;;;;;;;;;5050263;28;20070;-70
2022/02/13 00:28:28;;;;;;;0.45;0.45;;;;;;;;;;5058982;28;20510;-70
2022/02/13 00:30:54;;;;;;;0.17;0.17;;;;;;;;;;5050492;28;20434;-70
2022/02/13 00:33:20;;;;;;;0.40;0.40;;;;;;;;;;5048719;28;20267;-70
2022/02/13 00:35:47;;;;;;;0.55;0.52;;;;;;;;;;5053090;28;20464;-70
2022/02/13 00:38:13;;;;;;;0.75;0.75;;;;;;;;;;5058154;28;20017;-71
2022/02/13 00:40:39;;;;;;;0.25;0.25;;;;;;;;;;5050218;28;20025;-70
2022/02/13 00:43:05;;;;;;;1.45;0.95;;;;;;;;;;5060361;28;20025;-70
2022/02/13 00:45:32;;;;;;;0.10;0.10;;;;;;;;;;5057361;28;20104;-70
2022/02/13 00:47:58;;;;;;;0.52;0.52;;;;;;;;;;5061307;28;20036;-70
2022/02/13 00:50:24;;;;;;;0.63;0.63;;;;;;;;;;5049204;28;20478;-70
2022/02/13 00:52:50;;;;;;;0.52;0.52;;;;;;;;;;5060067;28;20033;-71
2022/02/13 00:55:16;;;;;;;1.02;0.95;;;;;;;;;;5048771;28;20029;-71
2022/02/13 00:57:42;;;;;;;1.77;1.10;;;;;;;;;;5049733;28;20277;-71
2022/02/13 01:00:08;;;;;;;0.10;0.10;;;;;;;;;;5050767;28;20027;-70
2022/02/13 01:02:34;;;;;;;0.40;0.40;;;;;;;;;;5061549;28;20033;-70
2022/02/13 01:05:00;;;;;;;2.40;1.23;;;;;;;;;;5056945;28;20027;-70
2022/02/13 01:07:26;;;;;;;0.75;0.50;;;;;;;;;;5047255;28;20013;-70
2022/02/13 01:09:52;;;;;;;0.40;0.40;;;;;;;;;;5055957;28;20029;-70
2022/02/13 01:12:18;;;;;;;0.40;0.40;;;;;;;;;;5053397;28;20029;-70
2022/02/13 01:14:44;;;;;;;0.57;0.57;;;;;;;;;;5063077;28;20476;-70
2022/02/13 01:17:10;;;;;;;0.30;0.30;;;;;;;;;;5049206;28;20027;-70
2022/02/13 01:19:36;;;;;;;0.10;0.10;;;;;;;;;;5062622;28;20127;-71
2022/02/13 01:22:04;;;;;;;0.73;0.73;;;;;;;;;;5059032;28;20384;-71
2022/02/13 01:24:31;;;;;;;1.95;1.48;;;;;;;;;;5053624;28;20044;-70
2022/02/13 01:26:59;;;;;;;0.22;0.22;;;;;;;;;;5049671;28;20087;-70
2022/02/13 01:29:26;;;;;;;1.45;1.35;;;;;;;;;;5060364;28;20081;-70
2022/02/13 01:31:51;;;;;;;0.98;0.55;;;;;;;;;;5065018;28;20025;-70
2022/02/13 01:34:18;;;;;;;0.32;0.32;;;;;;;;;;5059977;28;20025;-70
2022/02/13 01:36:45;;;;;;;0.10;0.10;;;;;;;;;;5057852;28;20045;-71
2022/02/13 01:39:11;;;;;;;0.03;0.03;;;;;;;;;;5059848;28;20025;-70
2022/02/13 01:41:37;;;;;;;0.55;0.55;;;;;;;;;;5050124;28;20028;-70
2022/02/13 01:44:03;;;;;;;1.08;1.02;;;;;;;;;;5050887;28;20025;-70
2022/02/13 01:46:30;;;;;;;0.52;0.52;;;;;;;;;;5051482;28;20040;-70
2022/02/13 01:48:55;;;;;;;1.17;1.13;;;;;;;;;;5053542;28;20063;-70
2022/02/13 01:51:23;;;;;;;0.10;0.10;;;;;;;;;;5068258;28;20438;-71
2022/02/13 01:53:49;;;;;;;0.77;0.52;;;;;;;;;;5048691;28;20053;-70
2022/02/13 01:56:15;;;;;;;0.38;0.38;;;;;;;;;;5049282;28;20021;-70
2022/02/13 01:58:41;;;;;;;0.20;0.20;;;;;;;;;;5047717;28;20028;-70
2022/02/13 02:01:07;;;;;;;0.70;0.70;;;;;;;;;;5064485;28;20034;-70
2022/02/13 02:03:32;;;;;;;0.43;0.43;;;;;;;;;;5050984;28;20468;-70
2022/02/13 02:05:58;;;;;;;2.63;1.48;;;;;;;;;;5055057;28;20060;-70
2022/02/13 02:08:24;;;;;;;3.60;1.27;;;;;;;;;;5069058;28;20039;-70
2022/02/13 02:10:50;;;;;;;0.10;0.10;;;;;;;;;;5052050;28;20068;-71
2022/02/13 02:13:16;;;;;;;0.10;0.10;;;;;;;;;;5059072;28;20025;-71
2022/02/13 02:15:42;;;;;;;0.20;0.20;;;;;;;;;;5055694;28;20375;-70
2022/02/13 02:18:08;;;;;;;1.75;0.85;;;;;;;;;;5048652;28;20037;-71
2022/02/13 02:20:34;;;;;;;0.20;0.20;;;;;;;;;;5049680;28;20112;-71
2022/02/13 02:23:00;;;;;;;1.98;1.38;;;;;;;;;;5051848;28;20423;-71
2022/02/13 02:25:26;;;;;;;0.77;0.57;;;;;;;;;;5054125;28;20032;-70
2022/02/13 02:27:52;;;;;;;0.30;0.30;;;;;;;;;;5053605;28;20036;-70
2022/02/13 02:30:18;;;;;;;0.10;0.10;;;;;;;;;;5053821;28;20029;-70
2022/02/13 02:32:44;;;;;;;1.02;0.88;;;;;;;;;;5056083;28;20116;-70
2022/02/13 02:35:10;;;;;;;0.20;0.20;;;;;;;;;;5053848;28;20056;-71
2022/02/13 02:37:36;;;;;;;0.25;0.25;;;;;;;;;;5063011;28;20021;-71
2022/02/13 02:40:01;;;;;;;0.28;0.28;;;;;;;;;;5054732;28;20036;-70
2022/02/13 02:42:27;;;;;;;0.20;0.20;;;;;;;;;;5065075;28;20066;-69
2022/02/13 02:44:53;;;;;;;1.38;1.27;;;;;;;;;;5072359;28;20054;-70
2022/02/13 02:47:19;;;;;;;0.65;0.65;;;;;;;;;;5051440;28;20033;-71
2022/02/13 02:49:45;;;;;;;0.30;0.30;;;;;;;;;;5052623;28;20075;-70
2022/02/13 02:52:11;;;;;;;0.25;0.25;;;;;;;;;;5069823;28;20036;-71
2022/02/13 02:54:37;;;;;;;0.13;0.13;;;;;;;;;;5059188;28;20045;-70
2022/02/13 02:57:03;;;;;;;0.10;0.10;;;;;;;;;;5057414;28;20025;-71
2022/02/13 02:59:29;;;;;;;0.60;0.40;;;;;;;;;;5052474;28;20109;-70
2022/02/13 03:01:55;;;;;;;0.13;0.13;;;;;;;;;;5069784;28;20461;-71
2022/02/13 03:04:24;;;;;;;0.75;0.50;;;;;;;;;;5052022;28;20028;-70
2022/02/13 03:06:50;;;;;;;0.15;0.15;;;;;;;;;;5052795;28;20388;-70
2022/02/13 03:09:16;;;;;;;2.83;1.17;;;;;;;;;;5057020;28;20032;-70
2022/02/13 03:11:41;;;;;;;0.20;0.20;;;;;;;;;;5060442;28;20021;-70
2022/02/13 03:14:08;;;;;;;0.10;0.10;;;;;;;;;;5055799;28;20475;-70
2022/02/13 03:16:34;;;;;;;2.38;1.88;;;;;;;;;;5052445;28;20114;-71
2022/02/13 03:19:00;;;;;;;0.20;0.20;;;;;;;;;;5050915;28;20029;-71
2022/02/13 03:21:26;;;;;;;0.00;0.00;;;;;;;;;;5052352;28;20497;-70
2022/02/13 03:23:52;;;;;;;0.20;0.20;;;;;;;;;;5054032;28;20033;-70
2022/02/13 03:26:21;;;;;;;0.10;0.10;;;;;;;;;;5071996;28;20364;-71
2022/02/13 03:28:47;;;;;;;0.40;0.40;;;;;;;;;;5053556;28;20115;-70
2022/02/13 03:31:13;;;;;;;0.17;0.17;;;;;;;;;;5051099;28;20064;-70
2022/02/13 03:33:38;;;;;;;0.40;0.40;;;;;;;;;;5064998;28;20028;-71
2022/02/13 03:36:04;;;;;;;0.10;0.10;;;;;;;;;;5052109;28;20277;-71
2022/02/13 03:38:30;;;;;;;0.47;0.47;;;;;;;;;;5050523;28;20114;-70
2022/02/13 03:40:57;;;;;;;0.28;0.28;;;;;;;;;;5051730;28;20112;-70
2022/02/13 03:43:23;;;;;;;0.20;0.20;;;;;;;;;;5060626;28;20021;-70
2022/02/13 03:45:49;;;;;;;1.65;1.55;;;;;;;;;;5071155;28;20020;-71
2022/02/13 03:48:14;;;;;;;0.10;0.10;;;;;;;;;;5060495;28;20017;-71
2022/02/13 03:50:41;;;;;;;1.30;0.95;;;;;;;;;;5052905;28;20071;-71
2022/02/13 03:53:07;;;;;;;0.10;0.10;;;;;;;;;;5060853;28;20063;-70
2022/02/13 03:55:33;;;;;;;0.30;0.30;;;;;;;;;;5049799;28;20025;-70
2022/02/13 03:57:59;;;;;;;0.30;0.30;;;;;;;;;;5060611;28;20025;-71
2022/02/13 04:00:26;;;;;;;0.10;0.10;;;;;;;;;;5050309;28;20041;-71
2022/02/13 04:02:55;;;;;;;0.20;0.20;;;;;;;;;;5049244;28;20490;-70
2022/02/13 04:05:23;;;;;;;0.73;0.70;;;;;;;;;;5061073;28;20368;-71
2022/02/13 04:07:49;;;;;;;0.20;0.20;;;;;;;;;;5058718;28;20049;-70
2022/02/13 04:10:15;;;;;;;0.20;0.20;;;;;;;;;;5050194;28;20090;-70
2022/02/13 04:12:41;;;;;;;0.52;0.52;;;;;;;;;;5049619;28;20130;-70
2022/02/13 04:15:08;;;;;;;1.35;1.25;;;;;;;;;;5051468;28;20043;-71
2022/02/13 04:17:33;;;;;;;0.10;0.10;;;;;;;;;;5050647;28;20025;-71
2022/02/13 04:19:59;;;;;;;0.45;0.45;;;;;;;;;;5056716;28;20043;-70
2022/02/13 04:22:25;;;;;;;2.53;1.02;;;;;;;;;;5049511;28;20028;-70
2022/02/13 04:24:51;;;;;;;0.10;0.10;;;;;;;;;;5067514;28;20391;-70
2022/02/13 04:27:17;;;;;;;0.10;0.10;;;;;;;;;;5064967;28;20052;-71
2022/02/13 04:29:43;;;;;;;1.25;1.13;;;;;;;;;;5064643;28;20063;-70
2022/02/13 04:32:09;;;;;;;0.50;0.47;;;;;;;;;;5050741;28;20187;-70
2022/02/13 04:34:35;;;;;;;0.20;0.20;;;;;;;;;;5059531;28;20035;-71
2022/02/13 04:37:01;;;;;;;0.40;0.40;;;;;;;;;;5053376;28;20045;-70
2022/02/13 04:39:27;;;;;;;1.23;1.15;;;;;;;;;;5062372;28;20024;-71
2022/02/13 04:41:53;;;;;;;0.45;0.28;;;;;;;;;;5070049;28;20387;-70
2022/02/13 04:44:19;;;;;;;0.15;0.15;;;;;;;;;;5051736;28;20032;-70
2022/02/13 04:46:45;;;;;;;0.20;0.20;;;;;;;;;;5049813;28;20083;-71
2022/02/13 04:49:11;;;;;;;1.55;1.45;;;;;;;;;;5059248;28;20033;-70
2022/02/13 04:51:36;;;;;;;0.40;0.40;;;;;;;;;;5052245;28;20111;-71
2022/02/13 04:54:03;;;;;;;0.68;0.68;;;;;;;;;;5058310;28;20136;-71
2022/02/13 04:56:28;;;;;;;0.68;0.50;;;;;;;;;;5049330;28;20087;-70
2022/02/13 04:58:54;;;;;;;0.20;0.20;;;;;;;;;;5058969;28;20146;-70
2022/02/13 05:01:20;;;;;;;0.43;0.43;;;;;;;;;;5050180;28;20025;-71
2022/02/13 05:03:46;;;;;;;0.22;0.22;;;;;;;;;;5048461;28;20017;-71
2022/02/13 05:06:12;;;;;;;0.32;0.32;;;;;;;;;;5049498;28;20037;-70
2022/02/13 05:08:38;;;;;;;2.92;1.02;;;;;;;;;;5057130;28;20660;-71
2022/02/13 05:11:04;;;;;;;0.20;0.20;;;;;;;;;;5067999;28;20176;-70
2022/02/13 05:13:30;;;;;;;1.00;1.00;;;;;;;;;;5064096;28;20032;-70
2022/02/13 05:15:56;;;;;;;0.22;0.22;;;;;;;;;;5048596;28;20383;-70
2022/02/13 05:18:22;;;;;;;0.30;0.30;;;;;;;;;;5062483;28;20037;-71
2022/02/13 05:20:48;;;;;;;0.90;0.85;;;;;;;;;;5048966;28;20056;-71
2022/02/13 05:23:16;;;;;;;0.65;0.65;;;;;;;;;;5049896;28;20029;-70
2022/02/13 05:25:42;;;;;;;0.47;0.47;;;;;;;;;;5050863;28;20102;-70
2022/02/13 05:28:08;;;;;;;1.75;1.38;;;;;;;;;;5052255;28;20487;-70
2022/02/13 05:30:34;;;;;;;0.38;0.38;;;;;;;;;;5049756;28;20025;-71
2022/02/13 05:33:00;;;;;;;0.47;0.47;;;;;;;;;;5048876;28;20384;-70
2022/02/13 05:35:27;;;;;;;1.65;1.55;;;;;;;;;;5052460;28;20067;-71
2022/02/13 05:37:56;;;;;;;0.47;0.47;;;;;;;;;;5061106;28;20029;-69
2022/02/13 05:40:22;;;;;;;0.47;0.47;;;;;;;;;;5049716;28;20024;-70
2022/02/13 05:42:48;;;;;;;0.65;0.65;;;;;;;;;;5049917;28;20021;-70
2022/02/13 05:45:14;;;;;;;0.90;0.50;;;;;;;;;;5048863;28;20056;-71
2022/02/13 05:47:41;;;;;;;0.10;0.10;;;;;;;;;;5053070;28;20480;-70
2022/02/13 05:50:08;;;;;;;0.25;0.25;;;;;;;;;;5058948;28;20394;-71
2022/02/13 05:52:34;;;;;;;0.30;0.30;;;;;;;;;;5063519;28;20029;-70
2022/02/13 05:55:00;;;;;;;0.30;0.30;;;;;;;;;;5047698;28;20102;-71
2022/02/13 05:57:25;;;;;;;1.20;1.10;;;;;;;;;;5048233;28;20112;-70
2022/02/13 05:59:51;;;;;;;1.33;0.80;;;;;;;;;;5049978;28;20052;-71
2022/02/13 06:02:17;;;;;;;0.22;0.22;;;;;;;;;;5063771;28;20391;-71
2022/02/13 06:04:43;;;;;;;1.15;1.08;;;;;;;;;;5053430;28;20071;-71
2022/02/13 06:07:09;;;;;;;2.33;1.85;;;;;;;;;;5049364;28;20044;-71
2022/02/13 06:09:35;;;;;;;1.20;1.10;;;;;;;;;;5055431;28;20090;-71
2022/02/13 06:12:07;;;;;;;0.55;0.55;;;;;;;;;;5068418;28;20046;-71
2022/02/13 06:14:33;;;;;;;0.30;0.30;;;;;;;;;;5056238;28;20028;-71
2022/02/13 06:16:59;;;;;;;2.55;1.05;;;;;;;;;;5048502;28;20530;-70
2022/02/13 06:19:26;;;;;;;0.10;0.10;;;;;;;;;;5048418;28;20072;-71
2022/02/13 06:21:52;;;;;;;0.30;0.30;;;;;;;;;;5049456;28;20052;-70
2022/02/13 06:24:18;;;;;;;0.22;0.22;;;;;;;;;;5055281;28;20044;-71
2022/02/13 06:26:43;;;;;;;1.50;1.40;;;;;;;;;;5047854;28;20063;-71
2022/02/13 06:29:10;;;;;;;0.80;0.80;;;;;;;;;;5047205;28;20464;-71
2022/02/13 06:31:35;;;;;;;0.75;0.65;;;;;;;;;;5047995;28;20052;-71
2022/02/13 06:34:01;;;;;;;1.65;0.50;;;;;;;;;;5050192;28;20064;-71
2022/02/13 06:36:27;;;;;;;1.65;0.85;;;;;;;;;;5047731;28;20061;-71
2022/02/13 06:38:53;;;;;;;0.43;0.43;;;;;;;;;;5060616;28;20060;-72
2022/02/13 06:41:19;;;;;;;0.38;0.38;;;;;;;;;;5046580;28;20029;-71
2022/02/13 06:43:45;;;;;;;0.22;0.22;;;;;;;;;;5049970;28;20025;-71
2022/02/13 06:46:11;;;;;;;0.25;0.25;;;;;;;;;;5048833;28;20479;-71
2022/02/13 06:48:37;;;;;;;0.22;0.22;;;;;;;;;;5054195;28;20035;-71
2022/02/13 06:51:04;;;;;;;0.55;0.52;;;;;;;;;;5051676;28;20395;-71
2022/02/13 06:53:29;;;;;;;0.20;0.20;;;;;;;;;;5049144;28;20053;-70
2022/02/13 06:55:55;;;;;;;1.10;0.52;;;;;;;;;;5047162;28;20447;-71
2022/02/13 06:58:21;;;;;;;0.20;0.20;;;;;;;;;;5048050;28;20017;-71
2022/02/13 07:00:47;;;;;;;0.30;0.30;;;;;;;;;;5048267;28;20482;-71
2022/02/13 07:03:13;;;;;;;1.08;0.85;;;;;;;;;;5051882;28;20021;-70
2022/02/13 07:05:39;;;;;;;0.57;0.57;;;;;;;;;;5047780;28;20397;-71
2022/02/13 07:08:05;;;;;;;0.77;0.40;;;;;;;;;;5046734;28;20135;-70
2022/02/13 07:10:31;;;;;;;0.40;0.40;;;;;;;;;;5047962;28;20111;-70
2022/02/13 07:12:57;;;;;;;0.35;0.35;;;;;;;;;;5055091;28;20062;-71
2022/02/13 07:15:23;;;;;;;0.10;0.10;;;;;;;;;;5057505;28;20394;-71
2022/02/13 07:17:49;;;;;;;0.77;0.77;;;;;;;;;;5056465;28;20028;-71
2022/02/13 07:20:15;;;;;;;0.82;0.80;;;;;;;;;;5051770;28;20052;-71
2022/02/13 07:22:41;;;;;;;0.10;0.10;;;;;;;;;;5053270;28;20056;-71
2022/02/13 07:25:07;;;;;;;0.63;0.63;;;;;;;;;;5051006;28;20035;-72
2022/02/13 07:27:36;;;;;;;0.80;0.80;;;;;;;;;;5055154;28;20434;-71
2022/02/13 07:30:03;;;;;;;0.10;0.10;;;;;;;;;;5051165;28;20029;-70
2022/02/13 07:32:30;;;;;;;0.50;0.50;;;;;;;;;;5052325;28;20021;-70
2022/02/13 07:34:58;;;;;;;0.47;0.47;;;;;;;;;;5056541;28;20036;-71
2022/02/13 07:37:24;;;;;;;0.15;0.15;;;;;;;;;;5049774;28;20088;-71
2022/02/13 07:39:50;;;;;;;1.40;1.30;;;;;;;;;;5058078;28;20037;-71
2022/02/13 07:42:17;;;;;;;0.43;0.43;;;;;;;;;;5052213;28;20047;-70
2022/02/13 07:44:43;;;;;;;0.77;0.43;;;;;;;;;;5051500;28;20029;-70
2022/02/13 07:47:09;;;;;;;0.15;0.15;;;;;;;;;;5052168;28;20546;-71
2022/02/13 07:49:35;;;;;;;1.48;1.38;;;;;;;;;;5050405;28;20049;-70
2022/02/13 07:52:00;;;;;;;1.00;1.00;;;;;;;;;;5049298;28;20064;-71
2022/02/13 07:54:27;;;;;;;0.63;0.63;;;;;;;;;;5043320;28;20049;-71
2022/02/13 07:56:53;;;;;;;0.50;0.50;;;;;;;;;;5047148;28;20037;-71
2022/02/13 07:59:19;;;;;;;0.30;0.30;;;;;;;;;;5056901;28;20036;-71
2022/02/13 08:01:45;;;;;;;2.10;0.80;;;;;;;;;;5057560;28;20031;-71
2022/02/13 08:04:13;;;;;;;0.10;0.10;;;;;;;;;;5052080;28;20118;-71
2022/02/13 08:06:39;;;;;;;0.30;0.30;;;;;;;;;;5051391;28;20036;-71
2022/02/13 08:09:05;;;;;;;0.10;0.10;;;;;;;;;;5053012;28;20033;-71
2022/02/13 08:11:31;;;;;;;0.35;0.35;;;;;;;;;;5048717;28;20395;-71
2022/02/13 08:13:58;;;;;;;2.00;0.57;;;;;;;;;;5052908;28;20021;-71
2022/02/13 08:16:24;;;;;;;0.65;0.65;;;;;;;;;;5051847;28;20028;-72
2022/02/13 08:18:50;;;;;;;0.90;0.45;;;;;;;;;;5049126;28;20024;-71
2022/02/13 08:21:16;;;;;;;0.75;0.75;;;;;;;;;;5058751;28;20032;-71
2022/02/13 08:23:42;;;;;;;0.20;0.20;;;;;;;;;;5049403;28;20021;-71
2022/02/13 08:26:09;;;;;;;0.10;0.10;;;;;;;;;;5050165;28;20028;-71
2022/02/13 08:28:35;;;;;;;0.10;0.10;;;;;;;;;;5058207;28;20029;-71
2022/02/13 08:31:02;;;;;;;3.63;1.38;;;;;;;;;;5046585;28;20040;-70
2022/02/13 08:33:28;;;;;;;0.10;0.10;;;;;;;;;;5055939;28;20538;-70
2022/02/13 08:35:54;;;;;;;1.05;0.95;;;;;;;;;;5048095;28;20048;-71
2022/02/13 08:38:22;;;;;;;0.88;0.57;;;;;;;;;;5047118;28;20049;-71
2022/02/13 08:40:47;;;;;;;0.20;0.20;;;;;;;;;;5049803;28;20021;-72
2022/02/13 08:43:13;;;;;;;0.57;0.57;;;;;;;;;;5049165;28;20086;-70
2022/02/13 08:45:39;;;;;;;0.43;0.43;;;;;;;;;;5058675;28;20110;-71
2022/02/13 08:48:05;;;;;;;0.45;0.45;;;;;;;;;;5062090;28;20056;-71
2022/02/13 08:50:33;;;;;;;0.45;0.45;;;;;;;;;;5053145;28;20036;-71
2022/02/13 08:53:03;;;;;;;0.30;0.30;;;;;;;;;;5056079;28;20072;-71
2022/02/13 08:55:32;;;;;;;0.20;0.20;;;;;;;;;;5052621;28;20108;-71
2022/02/13 08:57:58;;;;;;;0.10;0.10;;;;;;;;;;5051548;28;20029;-75
2022/02/13 09:00:24;;;;;;;0.20;0.20;;;;;;;;;;5050440;28;20025;-72
2022/02/13 09:02:50;;;;;;;0.65;0.65;;;;;;;;;;5059541;28;20025;-72
2022/02/13 09:05:17;;;;;;;0.22;0.22;;;;;;;;;;5050227;28;20104;-72
2022/02/13 09:07:43;;;;;;;0.90;0.85;;;;;;;;;;5047210;28;20056;-73
2022/02/13 09:10:11;;;;;;;0.65;0.65;;;;;;;;;;5052064;28;20545;-76
2022/02/13 09:12:37;;;;;;;0.38;0.38;;;;;;;;;;5049837;28;20024;-74
2022/02/13 09:15:04;;;;;;;0.50;0.50;;;;;;;;;;5047307;28;20032;-72
2022/02/13 09:17:30;;;;;;;0.25;0.25;;;;;;;;;;5048434;28;20029;-75
2022/02/13 09:19:56;;;;;;;0.43;0.43;;;;;;;;;;5048280;28;20025;-75
2022/02/13 09:22:22;;;;;;;0.10;0.10;;;;;;;;;;5056393;28;20020;-75
2022/02/13 09:24:48;;;;;;;0.35;0.35;;;;;;;;;;5043307;28;20117;-74
2022/02/13 09:27:14;;;;;;;0.45;0.45;;;;;;;;;;5058202;28;20033;-74
2022/02/13 09:29:41;;;;;;;0.10;0.10;;;;;;;;;;5049260;28;20032;-74
2022/02/13 09:32:07;;;;;;;2.10;1.25;;;;;;;;;;5061459;28;20154;-75
2022/02/13 09:34:58;;;;;;;0.43;0.43;;;;;;;;;;5046027;28;20025;-74
2022/02/13 09:37:24;;;;;;;0.10;0.10;;;;;;;;;;5046866;28;20069;-75
2022/02/13 09:39:50;;;;;;;0.03;0.03;;;;;;;;;;5055851;28;20063;-75
2022/02/13 09:42:19;;;;;;;0.30;0.30;;;;;;;;;;5057558;28;20028;-74
2022/02/13 09:44:45;;;;;;;0.57;0.57;;;;;;;;;;5064104;28;20059;-75
2022/02/13 09:47:11;;;;;;;1.05;0.98;;;;;;;;;;5049724;28;21167;-75
2022/02/13 09:49:37;;;;;;;0.22;0.22;;;;;;;;;;5048660;28;20028;-74
2022/02/13 09:52:04;;;;;;;0.38;0.38;;;;;;;;;;5047406;28;20573;-76
2022/02/13 09:54:29;;;;;;;0.20;0.20;;;;;;;;;;5048627;28;20044;-76
2022/02/13 09:57:59;;;;;;;0.13;0.13;;;;;;;;;;5049722;28;20021;-75
2022/02/13 09:59:55;;;;;;;0.10;0.10;;;;;;;;;;5048359;28;20013;-75
2022/02/13 10:02:34;;;;;;;0.43;0.28;;;;;;;;;;5049024;28;20484;-74
2022/02/13 10:05:00;;;;;;;0.30;0.30;;;;;;;;;;5052859;28;20126;-74
2022/02/13 10:07:26;;;;;;;0.22;0.22;;;;;;;;;;5053223;28;20021;-74
2022/02/13 10:09:58;;;;;;;0.50;0.45;;;;;;;;;;5048140;28;20059;-75
2022/02/13 10:12:31;;;;;;;0.98;0.35;;;;;;;;;;5047966;28;20056;-75
2022/02/13 10:14:56;;;;;;;0.10;0.10;;;;;;;;;;5042322;28;20114;-75
2022/02/13 10:17:22;;;;;;;0.80;0.77;;;;;;;;;;5049466;28;20491;-74
2022/02/13 10:19:54;;;;;;;0.28;0.25;;;;;;;;;;5046667;28;20071;-76
2022/02/13 10:22:36;;;;;;;0.40;0.40;;;;;;;;;;5047699;28;20040;-80
2022/02/13 10:25:14;;;;;;;0.10;0.10;;;;;;;;;;5047377;28;20677;-75
2022/02/13 10:27:47;;;;;;;0.28;0.28;;;;;;;;;;5050472;28;20132;-76
2022/02/13 10:30:13;;;;;;;0.10;0.10;;;;;;;;;;5045759;28;20552;-77
2022/02/13 10:32:42;;;;;;;0.63;0.63;;;;;;;;;;5057148;28;20047;-80
2022/02/13 10:35:12;;;;;;;0.20;0.20;;;;;;;;;;5054592;28;20056;-80
2022/02/13 10:37:59;;;;;;;0.32;0.32;;;;;;;;;;5047120;28;20024;-81
2022/02/13 10:40:32;;;;;;;0.70;0.50;;;;;;;;;;5048459;28;20029;-80
2022/02/13 10:43:17;;;;;;;0.13;0.13;;;;;;;;;;5059460;28;20497;-80
2022/02/13 10:45:43;;;;;;;0.10;0.10;;;;;;;;;;5048394;28;20525;-84
2022/02/13 10:48:11;;;;;;;0.10;0.10;;;;;;;;;;5048608;28;20041;-83
2022/02/13 10:50:40;;;;;;;1.05;0.68;;;;;;;;;;5050381;28;20029;-77
2022/02/13 10:53:06;;;;;;;0.30;0.30;;;;;;;;;;5048545;28;20049;-76
2022/02/13 10:55:34;;;;;;;0.10;0.10;;;;;;;;;;5034099;28;20041;-76
2022/02/13 10:58:00;;;;;;;0.65;0.65;;;;;;;;;;5043905;28;20111;-76
2022/02/13 11:00:27;;;;;;;0.05;0.05;;;;;;;;;;5042714;28;20116;-76
2022/02/13 11:02:54;;;;;;;0.08;0.08;;;;;;;;;;5046880;28;20143;-76
2022/02/13 11:05:28;;;;;;;0.20;0.20;;;;;;;;;;5049574;28;20066;-76
2022/02/13 11:07:58;;;;;;;2.38;1.02;;;;;;;;;;5046595;28;20040;-76
2022/02/13 11:10:34;;;;;;;0.30;0.30;;;;;;;;;;5045038;28;20033;-76
2022/02/13 11:13:01;;;;;;;0.50;0.50;;;;;;;;;;5025820;28;20037;-76
2022/02/13 11:15:31;;;;;;;1.13;0.43;;;;;;;;;;5039253;28;20024;-76
2022/02/13 11:18:08;;;;;;;0.28;0.28;;;;;;;;;;5047122;28;20045;-76
2022/02/13 11:20:35;;;;;;;0.70;0.70;;;;;;;;;;5042669;28;20027;-76
2022/02/13 11:23:18;;;;;;;4.85;0.80;;;;;;;;;;5045354;28;20025;-76
2022/02/13 11:26:00;;;;;;;0.68;0.68;;;;;;;;;;5043686;28;20033;-76
2022/02/13 11:28:27;;;;;;;1.38;0.40;;;;;;;;;;5046948;28;20037;-76
2022/02/13 11:30:56;;;;;;;0.25;0.25;;;;;;;;;;5044736;28;20033;-76
2022/02/13 11:33:26;;;;;;;0.80;0.80;;;;;;;;;;5048757;28;20120;-76
2022/02/13 11:35:59;;;;;;;0.63;0.63;;;;;;;;;;5047564;28;20044;-76
2022/02/13 11:38:40;;;;;;;0.10;0.10;;;;;;;;;;5049313;28;20029;-76
2022/02/13 11:41:06;;;;;;;0.35;0.35;;;;;;;;;;5047186;28;20117;-76
2022/02/13 11:43:44;;;;;;;0.15;0.15;;;;;;;;;;5043086;28;20040;-76
2022/02/13 11:46:11;;;;;;;0.80;0.80;;;;;;;;;;5044333;28;20037;-76
2022/02/13 11:48:36;;;;;;;0.03;0.03;;;;;;;;;;5047613;28;20393;-76
2022/02/13 11:51:03;;;;;;;0.20;0.20;;;;;;;;;;5046947;28;20032;-76
2022/02/13 11:53:30;;;;;;;0.00;0.00;;;;;;;;;;5044602;28;20500;-76
2022/02/13 11:56:14;;;;;;;2.10;0.32;;;;;;;;;;5046876;28;20062;-76
2022/02/13 11:58:43;;;;;;;1.27;1.17;;;;;;;;;;5047587;28;20029;-76
2022/02/13 12:01:29;;;;;;;0.63;0.63;;;;;;;;;;5047188;28;20029;-76
2022/02/13 12:03:55;;;;;;;0.17;0.17;;;;;;;;;;5046241;28;20510;-77
2022/02/13 12:06:28;;;;;;;0.52;0.52;;;;;;;;;;5048351;28;20021;-76
2022/02/13 12:08:58;;;;;;;0.47;0.45;;;;;;;;;;5044107;28;20096;-76
2022/02/13 12:11:29;;;;;;;0.63;0.63;;;;;;;;;;5046689;28;20036;-77
2022/02/13 12:13:55;;;;;;;0.30;0.15;;;;;;;;;;5047890;28;21243;-76
2022/02/13 12:16:25;;;;;;;0.10;0.10;;;;;;;;;;5046659;28;20025;-76
2022/02/13 12:18:51;;;;;;;0.20;0.20;;;;;;;;;;5048219;28;20028;-76
2022/02/13 12:21:17;;;;;;;0.03;0.03;;;;;;;;;;5048285;28;20029;-76
2022/02/13 12:23:43;;;;;;;0.70;0.70;;;;;;;;;;5045826;28;20443;-76
2022/02/13 12:26:09;;;;;;;0.00;0.00;;;;;;;;;;5042660;28;20025;-76
2022/02/13 12:28:36;;;;;;;1.75;0.52;;;;;;;;;;5045013;28;20067;-75
2022/02/13 12:31:07;;;;;;;0.85;0.85;;;;;;;;;;5045143;28;20119;-75
2022/02/13 12:33:39;;;;;;;0.20;0.20;;;;;;;;;;5045696;28;20029;-76
2022/02/13 12:36:05;;;;;;;1.02;0.52;;;;;;;;;;5048633;28;20067;-75
2022/02/13 12:38:32;;;;;;;0.30;0.30;;;;;;;;;;5047540;28;20380;-76
2022/02/13 12:41:01;;;;;;;0.70;0.70;;;;;;;;;;5048324;28;20021;-76
2022/02/13 12:43:28;;;;;;;0.95;0.55;;;;;;;;;;5043351;28;20033;-79
2022/02/13 12:45:55;;;;;;;0.55;0.55;;;;;;;;;;5050945;28;20102;-79
2022/02/13 12:48:22;;;;;;;0.38;0.35;;;;;;;;;;5048755;28;20029;-80
2022/02/13 12:50:49;;;;;;;0.93;0.85;;;;;;;;;;5049837;28;20024;-79
2022/02/13 12:53:20;;;;;;;0.80;0.63;;;;;;;;;;5049385;28;20087;-79
2022/02/13 12:55:46;;;;;;;0.20;0.20;;;;;;;;;;5049720;28;20028;-79
2022/02/13 12:58:12;;;;;;;0.03;0.03;;;;;;;;;;5050178;28;20668;-79
2022/02/13 13:00:41;;;;;;;2.53;0.50;;;;;;;;;;5049137;28;20033;-79
2022/02/13 13:03:10;;;;;;;0.43;0.43;;;;;;;;;;5048149;28;20494;-80
2022/02/13 13:05:41;;;;;;;2.97;1.17;;;;;;;;;;5052620;28;20028;-79
2022/02/13 13:08:11;;;;;;;0.30;0.30;;;;;;;;;;5051935;28;20029;-79
2022/02/13 13:10:43;;;;;;;0.10;0.10;;;;;;;;;;5062051;28;20419;-80
2022/02/13 13:13:09;;;;;;;2.10;0.73;;;;;;;;;;5059781;28;20025;-79
2022/02/13 13:15:36;;;;;;;0.38;0.38;;;;;;;;;;5048907;28;20478;-80
2022/02/13 13:18:03;;;;;;;0.55;0.55;;;;;;;;;;5043154;28;20055;-80
2022/02/13 13:20:31;;;;;;;0.63;0.63;;;;;;;;;;5051324;28;20086;-80
2022/02/13 13:23:09;;;;;;;1.45;1.20;;;;;;;;;;5047741;28;20025;-80
2022/02/13 13:25:35;;;;;;;0.80;0.80;;;;;;;;;;5050544;28;20033;-80
2022/02/13 13:28:08;;;;;;;0.13;0.13;;;;;;;;;;5048094;28;20032;-80
2022/02/13 13:30:34;;;;;;;0.03;0.03;;;;;;;;;;5049813;28;20495;-80
2022/02/13 13:33:01;;;;;;;1.00;0.80;;;;;;;;;;5033861;28;20037;-80
2022/02/13 13:35:28;;;;;;;0.90;0.65;;;;;;;;;;5036282;28;20514;-80
2022/02/13 13:37:54;;;;;;;0.03;0.03;;;;;;;;;;5051199;28;20039;-80
2022/02/13 13:40:24;;;;;;;0.20;0.20;;;;;;;;;;5047306;28;20475;-80
2022/02/13 13:42:57;;;;;;;0.98;0.38;;;;;;;;;;5048694;28;20017;-80
2022/02/13 13:45:27;;;;;;;0.30;0.30;;;;;;;;;;5058998;28;20033;-80
2022/02/13 13:47:54;;;;;;;0.52;0.52;;;;;;;;;;5046551;28;20022;-79
2022/02/13 13:50:22;;;;;;;0.82;0.82;;;;;;;;;;5047440;28;20029;-80
2022/02/13 13:52:48;;;;;;;0.30;0.30;;;;;;;;;;5049961;28;20049;-80
2022/02/13 13:55:14;;;;;;;0.08;0.08;;;;;;;;;;5048937;28;20041;-80
2022/02/13 13:57:41;;;;;;;0.30;0.30;;;;;;;;;;5048462;28;20032;-79
2022/02/13 14:00:07;;;;;;;0.52;0.20;;;;;;;;;;5048578;28;20439;-80
2022/02/13 14:02:33;;;;;;;1.08;0.50;;;;;;;;;;5047929;28;20031;-80
2022/02/13 14:04:59;;;;;;;1.85;0.30;;;;;;;;;;5045011;28;20029;-79
2022/02/13 14:07:25;;;;;;;3.13;1.20;;;;;;;;;;5030553;28;20021;-80
2022/02/13 14:09:51;;;;;;;0.10;0.10;;;;;;;;;;5054714;28;20119;-80
2022/02/13 14:12:21;;;;;;;0.22;0.22;;;;;;;;;;5047280;28;20115;-79
2022/02/13 14:14:47;;;;;;;3.30;1.00;;;;;;;;;;5048191;28;20049;-80
2022/02/13 14:17:13;;;;;;;0.05;0.05;;;;;;;;;;5053435;28;20028;-81
2022/02/13 14:19:39;;;;;;;2.17;0.55;;;;;;;;;;5056178;28;20032;-80
2022/02/13 14:22:06;;;;;;;0.13;0.13;;;;;;;;;;5055283;28;20511;-79
2022/02/13 14:24:32;;;;;;;1.88;0.88;;;;;;;;;;5049929;28;20036;-80
2022/02/13 14:26:58;;;;;;;0.20;0.20;;;;;;;;;;5047648;28;20032;-78
2022/02/13 14:29:25;;;;;;;0.22;0.22;;;;;;;;;;5048228;28;20446;-79
2022/02/13 14:31:51;;;;;;;0.10;0.10;;;;;;;;;;5049796;28;20060;-79
2022/02/13 14:34:18;;;;;;;0.22;0.22;;;;;;;;;;5051779;28;20040;-78
2022/02/13 14:36:44;;;;;;;2.08;0.90;;;;;;;;;;5049888;28;20328;-79
2022/02/13 14:39:14;;;;;;;0.05;0.05;;;;;;;;;;5054037;28;20043;-82
2022/02/13 14:41:40;;;;;;;0.10;0.10;;;;;;;;;;5045533;28;20037;-81
2022/02/13 14:44:06;;;;;;;0.32;0.10;;;;;;;;;;5058115;28;20182;-83